Time;durP1;ratioP1;P1;durP2;ratioP2;P2;SDS_P1;SDS_P2;PMS_P1;PMS_P2;Temp;Humidity;BMP_temperature;BMP_pressure;BME280_temperature;BME280_humidity;BME280_pressure;Samples;Min_cycle;Max_cycle;Signal;HPM_P1;HPM_P2
2023/01/07 00:01:30;;;;;;;9.55;8.25;;;;;;;8.88;100.00;101461.38;5248749;28;20033;-67
2023/01/07 00:04:03;;;;;;;12.77;8.63;;;;;;;8.88;100.00;101461.38;5252118;28;20036;-67
2023/01/07 00:06:38;;;;;;;10.13;8.45;;;;;;;8.87;100.00;101462.31;5254087;28;20044;-67
2023/01/07 00:09:15;;;;;;;11.23;8.45;;;;;;;8.92;100.00;101454.91;5253051;28;20166;-67
2023/01/07 00:11:46;;;;;;;11.27;8.48;;;;;;;8.86;100.00;101457.06;5252695;28;20057;-67
2023/01/07 00:14:18;;;;;;;13.85;9.00;;;;;;;8.88;100.00;101453.38;5249648;28;20115;-67
2023/01/07 00:16:49;;;;;;;11.20;8.82;;;;;;;8.86;100.00;101449.06;5254316;28;20029;-67
2023/01/07 00:19:21;;;;;;;12.20;9.73;;;;;;;8.82;100.00;101441.28;5256041;28;20048;-67
2023/01/07 00:21:52;;;;;;;14.40;10.25;;;;;;;8.89;100.00;101449.75;5248472;28;20041;-67
2023/01/07 00:24:23;;;;;;;15.25;10.40;;;;;;;8.89;100.00;101447.09;5252393;28;20561;-66
2023/01/07 00:26:55;;;;;;;14.70;10.95;;;;;;;8.83;100.00;101450.97;5255664;28;20017;-67
2023/01/07 00:29:26;;;;;;;14.98;10.75;;;;;;;8.89;100.00;101446.25;5251277;28;20436;-67
2023/01/07 00:31:57;;;;;;;15.43;10.55;;;;;;;8.86;100.00;101443.75;5251859;28;20479;-67
2023/01/07 00:34:28;;;;;;;16.50;10.80;;;;;;;8.90;100.00;101435.50;5252165;28;20021;-67
2023/01/07 00:37:48;;;;;;;17.30;11.63;;;;;;;8.86;100.00;101433.13;5255012;28;20039;-67
2023/01/07 00:39:51;;;;;;;13.88;10.40;;;;;;;8.82;100.00;101432.44;5250493;28;20075;-66
2023/01/07 00:45:12;;;;;;;16.10;11.73;;;;;;;8.79;100.00;101427.31;5250733;28;20077;-67
2023/01/07 00:47:43;;;;;;;16.42;11.80;;;;;;;8.78;100.00;101425.59;5255354;28;20056;-67
2023/01/07 00:50:15;;;;;;;17.75;12.27;;;;;;;8.82;100.00;101428.00;5253368;28;20497;-67
2023/01/07 00:52:46;;;;;;;19.20;12.15;;;;;;;8.75;100.00;101418.66;5257151;28;20119;-67
2023/01/07 00:55:17;;;;;;;17.38;12.27;;;;;;;8.77;100.00;101414.09;5255885;28;20025;-66
2023/01/07 00:57:49;;;;;;;16.20;11.00;;;;;;;8.78;100.00;101413.16;5257844;28;20051;-67
2023/01/07 01:00:22;;;;;;;16.55;11.27;;;;;;;8.78;100.00;101407.84;5252229;28;20047;-68
2023/01/07 01:02:53;;;;;;;16.00;10.63;;;;;;;8.81;100.00;101415.63;5260295;28;20130;-67
2023/01/07 01:05:25;;;;;;;14.80;10.02;;;;;;;8.77;100.00;101398.13;5257825;28;20028;-67
2023/01/07 01:07:56;;;;;;;14.27;9.98;;;;;;;8.77;100.00;101399.94;5260090;28;20039;-67
2023/01/07 01:10:28;;;;;;;15.30;9.82;;;;;;;8.75;100.00;101397.38;5257067;28;20045;-67
2023/01/07 01:13:00;;;;;;;11.43;9.35;;;;;;;8.73;100.00;101385.13;5255287;28;20526;-67
2023/01/07 01:15:31;;;;;;;13.98;9.73;;;;;;;8.78;100.00;101389.22;5255866;28;20029;-66
2023/01/07 01:18:02;;;;;;;16.10;9.73;;;;;;;8.71;100.00;101393.19;5257281;28;20324;-67
2023/01/07 01:20:34;;;;;;;15.88;9.63;;;;;;;8.69;100.00;101388.91;5258435;28;20111;-67
2023/01/07 01:23:06;;;;;;;11.45;9.45;;;;;;;8.67;100.00;101375.69;5251089;28;20036;-67
2023/01/07 01:25:37;;;;;;;12.25;9.38;;;;;;;8.64;100.00;101379.38;5258152;28;20036;-67
2023/01/07 01:28:09;;;;;;;15.38;9.65;;;;;;;8.60;100.00;101374.34;5257998;28;20032;-67
2023/01/07 01:30:40;;;;;;;12.25;9.57;;;;;;;8.59;100.00;101369.97;5254912;28;20390;-67
2023/01/07 01:33:11;;;;;;;14.77;9.70;;;;;;;8.60;100.00;101366.38;5257751;28;20029;-67
2023/01/07 01:35:42;;;;;;;14.77;9.00;;;;;;;8.55;100.00;101369.31;5257066;28;20016;-67
2023/01/07 01:38:14;;;;;;;12.98;8.50;;;;;;;8.56;100.00;101373.66;5256738;28;20035;-67
2023/01/07 01:40:45;;;;;;;12.63;9.50;;;;;;;8.56;100.00;101367.50;5257223;28;20063;-67
2023/01/07 01:43:35;;;;;;;12.98;8.77;;;;;;;8.55;100.00;101366.66;5255990;28;20032;-67
2023/01/07 01:46:28;;;;;;;13.27;8.75;;;;;;;8.55;100.00;101366.66;5245101;28;20040;-67
2023/01/07 01:49:11;;;;;;;10.55;8.02;;;;;;;8.56;100.00;101372.81;5257619;28;20021;-67
2023/01/07 01:51:48;;;;;;;12.07;8.40;;;;;;;8.56;100.00;101370.16;5255643;28;20474;-67
2023/01/07 01:54:20;;;;;;;13.43;8.20;;;;;;;8.54;100.00;101372.06;5256336;28;20063;-67
2023/01/07 01:56:53;;;;;;;13.40;8.50;;;;;;;8.52;100.00;101369.50;5257956;28;20041;-66
2023/01/07 01:59:29;;;;;;;13.38;8.63;;;;;;;8.49;100.00;101371.47;5253343;28;20045;-67
2023/01/07 02:02:01;;;;;;;11.23;8.35;;;;;;;8.51;100.00;101377.56;5252370;28;20028;-67
2023/01/07 02:04:33;;;;;;;12.90;8.65;;;;;;;8.51;100.00;101369.56;5255690;28;20269;-67
2023/01/07 02:07:14;;;;;;;10.68;7.80;;;;;;;8.50;100.00;101370.53;5254853;28;20542;-67
2023/01/07 02:09:57;;;;;;;14.07;7.80;;;;;;;8.49;100.00;101374.97;5253890;28;20021;-67
2023/01/07 02:13:07;;;;;;;12.75;7.97;;;;;;;8.46;100.00;101374.28;5259211;28;20025;-66
2023/01/07 02:16:14;;;;;;;11.32;7.22;;;;;;;8.45;100.00;101370.78;5253766;28;20039;-67
2023/01/07 02:19:16;;;;;;;11.93;7.88;;;;;;;8.45;100.00;101365.47;5254424;28;20107;-67
2023/01/07 02:22:06;;;;;;;12.48;7.25;;;;;;;8.42;100.00;101363.88;5256680;28;20116;-67
2023/01/07 02:25:00;;;;;;;11.13;6.93;;;;;;;8.42;100.00;101361.19;5254391;28;20036;-67
2023/01/07 02:27:42;;;;;;;10.95;7.43;;;;;;;8.44;100.00;101359.31;5256034;28;20124;-67
2023/01/07 02:30:35;;;;;;;11.02;7.05;;;;;;;8.40;100.00;101359.56;5256398;28;20033;-67
2023/01/07 02:33:25;;;;;;;9.13;6.53;;;;;;;8.46;100.00;101359.22;5251401;28;20033;-67
2023/01/07 02:36:24;;;;;;;10.35;7.13;;;;;;;8.39;100.00;101361.34;5254005;28;20127;-67
2023/01/07 02:39:11;;;;;;;10.77;7.18;;;;;;;8.40;100.00;101364.88;5256759;28;20021;-67
2023/01/07 02:42:01;;;;;;;11.55;7.65;;;;;;;8.41;100.00;101361.25;5255529;28;20055;-67
2023/01/07 02:44:48;;;;;;;13.00;7.30;;;;;;;8.40;100.00;101349.78;5255597;28;20103;-67
2023/01/07 02:47:27;;;;;;;11.93;8.52;;;;;;;8.36;100.00;101352.69;5255146;28;20056;-66
2023/01/07 02:49:58;;;;;;;11.75;7.43;;;;;;;8.37;100.00;101347.28;5247643;28;20039;-67
2023/01/07 02:52:32;;;;;;;10.25;6.50;;;;;;;8.36;100.00;101348.25;5246505;28;20025;-67
2023/01/07 02:55:13;;;;;;;9.73;6.57;;;;;;;8.37;100.00;101339.31;5255116;28;20028;-68
2023/01/07 02:58:03;;;;;;;11.18;6.60;;;;;;;8.44;100.00;101345.16;5254426;28;20056;-67
2023/01/07 03:00:58;;;;;;;10.07;6.30;;;;;;;8.53;100.00;101354.38;5251874;28;20088;-67
2023/01/07 03:04:03;;;;;;;9.57;6.38;;;;;;;8.55;100.00;101345.38;5251101;28;20041;-67
2023/01/07 03:07:11;;;;;;;8.93;5.85;;;;;;;8.55;100.00;101340.06;5250722;28;20098;-67
2023/01/07 03:10:04;;;;;;;9.57;6.72;;;;;;;8.57;100.00;101329.31;5250349;28;20036;-67
2023/01/07 03:12:48;;;;;;;8.75;5.88;;;;;;;8.60;100.00;101337.09;5255821;28;20041;-67
2023/01/07 03:15:20;;;;;;;7.97;5.63;;;;;;;8.68;100.00;101326.84;5248828;28;20032;-67
2023/01/07 03:17:59;;;;;;;9.55;6.13;;;;;;;8.66;100.00;101322.59;5260122;28;20016;-67
2023/01/07 03:20:34;;;;;;;8.73;5.30;;;;;;;8.68;100.00;101320.69;5249789;28;20086;-67
2023/01/07 03:23:10;;;;;;;9.63;5.50;;;;;;;8.66;100.00;101314.59;5251202;28;20029;-67
2023/01/07 03:25:45;;;;;;;8.23;5.63;;;;;;;8.70;100.00;101305.47;5255416;28;20371;-67
2023/01/07 03:28:20;;;;;;;8.70;5.32;;;;;;;8.68;100.00;101302.91;5249035;28;20053;-67
2023/01/07 03:30:55;;;;;;;11.98;5.95;;;;;;;8.70;100.00;101301.00;5254823;28;20033;-67
2023/01/07 03:33:33;;;;;;;7.65;4.97;;;;;;;8.69;100.00;101304.63;5254567;28;20477;-67
2023/01/07 03:36:07;;;;;;;7.72;4.85;;;;;;;8.75;100.00;101304.25;5251435;28;20025;-67
2023/01/07 03:38:42;;;;;;;7.40;5.05;;;;;;;8.68;100.00;101302.91;5252045;28;20371;-68
2023/01/07 03:42:38;;;;;;;8.52;5.38;;;;;;;8.74;100.00;101307.00;5253518;28;20390;-67
2023/01/07 03:44:04;;;;;;;9.75;4.93;;;;;;;8.73;100.00;101303.50;5253110;28;20036;-67
2023/01/07 03:46:36;;;;;;;9.25;4.70;;;;;;;8.75;100.00;101301.59;5251597;28;20051;-67
2023/01/07 03:49:07;;;;;;;6.82;4.70;;;;;;;8.75;100.00;101288.28;5252206;28;20033;-67
2023/01/07 03:51:39;;;;;;;7.40;4.90;;;;;;;8.79;100.00;101288.97;5252362;28;20491;-67
2023/01/07 03:54:10;;;;;;;8.23;4.78;;;;;;;8.78;100.00;101293.44;5254614;28;20479;-66
2023/01/07 03:56:41;;;;;;;9.18;4.60;;;;;;;8.84;100.00;101278.91;5249406;28;20124;-67
2023/01/07 03:59:13;;;;;;;8.35;4.80;;;;;;;8.80;100.00;101280.88;5251948;28;20104;-67
2023/01/07 04:01:44;;;;;;;6.72;4.43;;;;;;;8.88;100.00;101282.19;5262071;28;20031;-67
2023/01/07 04:04:16;;;;;;;9.07;4.60;;;;;;;8.85;100.00;101277.94;5252855;28;20044;-70
2023/01/07 04:06:47;;;;;;;6.20;4.20;;;;;;;8.87;100.00;101272.53;5250893;28;20479;-67
2023/01/07 04:09:20;;;;;;;7.45;4.10;;;;;;;8.82;100.00;101267.47;5258986;28;20059;-67
2023/01/07 04:11:52;;;;;;;8.20;4.78;;;;;;;8.85;100.00;101274.41;5254655;28;20029;-67
2023/01/07 04:14:23;;;;;;;7.65;4.22;;;;;;;8.83;100.00;101262.06;5260553;28;20062;-67
2023/01/07 04:16:54;;;;;;;7.78;4.25;;;;;;;8.85;100.00;101253.13;5254468;28;20035;-67
2023/01/07 04:19:25;;;;;;;7.28;4.22;;;;;;;8.83;100.00;101254.06;5254506;28;20563;-67
2023/01/07 04:21:57;;;;;;;6.45;4.22;;;;;;;8.88;100.00;101244.94;5252236;28;20593;-67
2023/01/07 04:24:28;;;;;;;5.78;4.13;;;;;;;8.92;100.00;101246.47;5256061;28;20079;-67
2023/01/07 04:26:59;;;;;;;7.95;4.07;;;;;;;8.86;100.00;101236.19;5256794;28;20550;-67
2023/01/07 04:29:31;;;;;;;6.70;4.03;;;;;;;8.83;100.00;101232.78;5265523;28;20035;-67
2023/01/07 04:32:02;;;;;;;8.52;3.90;;;;;;;8.82;100.00;101238.19;5259491;28;20028;-68
2023/01/07 04:34:33;;;;;;;8.95;4.68;;;;;;;8.80;100.00;101229.47;5262735;28;20028;-67
2023/01/07 04:37:05;;;;;;;6.85;4.22;;;;;;;8.78;100.00;101228.69;5263213;28;20025;-66
2023/01/07 04:39:36;;;;;;;6.03;3.80;;;;;;;8.75;100.00;101224.44;5259929;28;20073;-68
2023/01/07 04:42:08;;;;;;;5.47;3.50;;;;;;;8.76;100.00;101220.84;5257789;28;20039;-67
2023/01/07 04:44:39;;;;;;;8.77;3.72;;;;;;;8.69;100.00;101216.00;5259412;28;20498;-67
2023/01/07 04:47:10;;;;;;;5.75;3.78;;;;;;;8.72;100.00;101208.66;5256367;28;20914;-67
2023/01/07 04:49:41;;;;;;;5.60;3.40;;;;;;;8.65;100.00;101207.34;5258781;28;20131;-67
2023/01/07 04:52:13;;;;;;;7.00;3.45;;;;;;;8.60;100.00;101204.97;5255483;28;20032;-67
2023/01/07 04:54:44;;;;;;;6.75;3.45;;;;;;;8.60;100.00;101199.66;5260858;28;20033;-67
2023/01/07 04:57:15;;;;;;;6.85;3.85;;;;;;;8.57;100.00;101210.50;5257039;28;20024;-67
2023/01/07 04:59:46;;;;;;;6.38;3.40;;;;;;;8.57;100.00;101198.97;5263493;28;20037;-67
2023/01/07 05:02:18;;;;;;;6.63;3.63;;;;;;;8.57;100.00;101209.63;5259840;28;20085;-67
2023/01/07 05:04:49;;;;;;;6.78;3.70;;;;;;;8.55;100.00;101193.78;5259690;28;20033;-67
2023/01/07 05:07:20;;;;;;;6.55;3.60;;;;;;;8.56;100.00;101198.13;5260623;28;20076;-68
2023/01/07 05:09:51;;;;;;;7.75;3.70;;;;;;;8.54;100.00;101193.88;5258537;28;20029;-68
2023/01/07 05:12:23;;;;;;;6.68;3.38;;;;;;;8.55;100.00;101201.75;5258950;28;20526;-67
2023/01/07 05:14:54;;;;;;;7.10;3.33;;;;;;;8.56;100.00;101190.16;5261936;28;20027;-67
2023/01/07 05:17:25;;;;;;;6.18;3.20;;;;;;;8.54;100.00;101191.22;5264241;28;20052;-67
2023/01/07 05:19:57;;;;;;;6.38;3.70;;;;;;;8.48;100.00;101197.78;5259408;28;20052;-67
2023/01/07 05:22:28;;;;;;;5.07;3.25;;;;;;;8.49;100.00;101186.16;5258442;28;20561;-67
2023/01/07 05:24:59;;;;;;;5.10;3.00;;;;;;;8.44;100.00;101175.81;5258627;28;20483;-67
2023/01/07 05:27:31;;;;;;;6.22;3.17;;;;;;;8.46;100.00;101189.03;5255755;28;20415;-67
2023/01/07 05:30:03;;;;;;;4.82;2.80;;;;;;;8.42;100.00;101183.03;5253730;28;20051;-67
2023/01/07 05:32:34;;;;;;;5.03;2.78;;;;;;;8.47;100.00;101180.09;5262208;28;20040;-67
2023/01/07 05:35:06;;;;;;;5.72;2.72;;;;;;;8.39;100.00;101174.38;5258237;28;20082;-67
2023/01/07 05:37:37;;;;;;;7.97;2.70;;;;;;;8.42;100.00;101175.06;5260063;28;20121;-67
2023/01/07 05:40:09;;;;;;;6.88;2.80;;;;;;;8.41;100.00;101188.41;5255025;28;20384;-67
2023/01/07 05:42:41;;;;;;;6.05;2.55;;;;;;;8.41;100.00;101183.09;5257017;28;20428;-67
2023/01/07 05:45:12;;;;;;;4.65;2.63;;;;;;;8.44;100.00;101196.25;5253412;28;20094;-67
2023/01/07 05:47:43;;;;;;;4.95;2.45;;;;;;;8.45;100.00;101176.66;5257337;28;20138;-67
2023/01/07 05:50:15;;;;;;;6.22;2.28;;;;;;;8.49;100.00;101174.69;5255006;28;20034;-67
2023/01/07 05:52:46;;;;;;;4.93;2.13;;;;;;;8.48;100.00;101170.31;5251910;28;20033;-67
2023/01/07 05:55:18;;;;;;;4.72;2.55;;;;;;;8.54;100.00;101172.59;5254325;28;20043;-67
2023/01/07 05:57:49;;;;;;;5.25;2.33;;;;;;;8.50;100.00;101168.44;5253556;28;20037;-68
2023/01/07 06:00:20;;;;;;;5.47;2.55;;;;;;;8.53;100.00;101169.06;5252408;28;20037;-67
2023/01/07 06:02:51;;;;;;;4.93;2.47;;;;;;;8.53;100.00;101171.72;5255511;28;20086;-67
2023/01/07 06:05:23;;;;;;;5.15;2.38;;;;;;;8.55;100.00;101164.53;5254503;28;20098;-67
2023/01/07 06:07:54;;;;;;;4.22;2.15;;;;;;;8.58;100.00;101161.66;5255020;28;20028;-67
2023/01/07 06:10:26;;;;;;;4.65;2.13;;;;;;;8.58;100.00;101163.47;5256124;28;20094;-67
2023/01/07 06:12:57;;;;;;;4.25;2.08;;;;;;;8.59;100.00;101155.41;5254948;28;20036;-67
2023/01/07 06:15:28;;;;;;;4.05;1.92;;;;;;;8.61;100.00;101158.81;5256946;28;20025;-68
2023/01/07 06:18:00;;;;;;;4.40;1.75;;;;;;;8.62;100.00;101149.88;5255835;28;20059;-69
2023/01/07 06:20:33;;;;;;;3.83;1.90;;;;;;;8.62;100.00;101152.53;5251998;28;20132;-67
2023/01/07 06:23:04;;;;;;;3.40;1.80;;;;;;;8.64;100.00;101141.78;5257965;28;20037;-67
2023/01/07 06:25:36;;;;;;;4.45;1.92;;;;;;;8.62;100.00;101141.88;5258522;28;20294;-67
2023/01/07 06:28:07;;;;;;;6.10;1.80;;;;;;;8.63;100.00;101140.09;5253853;28;20041;-67
2023/01/07 06:30:38;;;;;;;3.10;1.63;;;;;;;8.64;100.00;101132.00;5256078;28;20056;-67
2023/01/07 06:33:09;;;;;;;5.40;1.80;;;;;;;8.62;100.00;101133.06;5255562;28;20029;-67
2023/01/07 06:35:41;;;;;;;3.05;1.58;;;;;;;8.65;100.00;101127.56;5256505;28;20461;-67
2023/01/07 06:38:12;;;;;;;2.92;1.52;;;;;;;8.63;100.00;101126.81;5251074;28;20033;-67
2023/01/07 06:40:43;;;;;;;4.97;1.77;;;;;;;8.64;100.00;101128.50;5251511;28;20039;-67
2023/01/07 06:43:15;;;;;;;3.22;1.40;;;;;;;8.67;100.00;101132.75;5251300;28;20056;-67
2023/01/07 06:45:46;;;;;;;2.55;1.48;;;;;;;8.67;100.00;101125.66;5252453;28;20037;-67
2023/01/07 06:48:17;;;;;;;3.92;1.38;;;;;;;8.68;100.00;101116.69;5249120;28;20041;-67
2023/01/07 06:50:49;;;;;;;4.45;1.50;;;;;;;8.67;100.00;101128.31;5250855;28;20375;-67
2023/01/07 06:53:20;;;;;;;3.70;1.60;;;;;;;8.71;100.00;101113.84;5252147;28;20056;-67
2023/01/07 06:55:51;;;;;;;3.00;1.30;;;;;;;8.80;100.00;101115.06;5250407;28;20037;-68
2023/01/07 06:58:22;;;;;;;3.03;1.33;;;;;;;8.70;100.00;101119.28;5251116;28;20048;-67
2023/01/07 07:00:54;;;;;;;2.58;1.30;;;;;;;8.68;100.00;101118.53;5250559;28;20029;-67
2023/01/07 07:03:25;;;;;;;3.08;1.33;;;;;;;8.66;100.00;101112.44;5246701;28;20115;-68
2023/01/07 07:05:56;;;;;;;2.53;1.20;;;;;;;8.75;100.00;101112.69;5253091;28;20033;-67
2023/01/07 07:08:27;;;;;;;3.42;1.40;;;;;;;8.72;100.00;101101.41;5249584;28;20075;-67
2023/01/07 07:10:59;;;;;;;3.03;1.30;;;;;;;8.74;100.00;101104.81;5264974;28;20482;-67
2023/01/07 07:13:30;;;;;;;2.72;1.35;;;;;;;8.68;100.00;101102.56;5249544;28;20052;-67
2023/01/07 07:16:01;;;;;;;3.25;1.42;;;;;;;8.67;100.00;101098.19;5249619;28;20383;-68
2023/01/07 07:18:33;;;;;;;3.13;1.10;;;;;;;8.74;100.00;101095.03;5253352;28;20048;-67
2023/01/07 07:21:04;;;;;;;3.03;1.20;;;;;;;8.66;100.00;101096.50;5244000;28;20055;-68
2023/01/07 07:23:35;;;;;;;3.83;1.30;;;;;;;8.61;100.00;101087.00;5252917;28;20041;-67
2023/01/07 07:26:07;;;;;;;3.33;1.70;;;;;;;8.60;100.00;101085.28;5252263;28;20040;-68
2023/01/07 07:28:41;;;;;;;2.63;1.35;;;;;;;8.61;100.00;101087.00;5250018;28;20036;-68
2023/01/07 07:31:12;;;;;;;3.47;1.48;;;;;;;8.62;100.00;101087.84;5244150;28;20164;-67
2023/01/07 07:33:44;;;;;;;4.15;1.40;;;;;;;8.59;100.00;101088.91;5245891;28;20490;-67
2023/01/07 07:36:15;;;;;;;2.78;1.13;;;;;;;8.58;100.00;101075.69;5248821;28;20037;-67
2023/01/07 07:38:46;;;;;;;4.20;1.40;;;;;;;8.57;100.00;101081.97;5247883;28;20039;-67
2023/01/07 07:41:18;;;;;;;2.40;1.15;;;;;;;8.64;100.00;101080.63;5254120;28;20475;-67
2023/01/07 07:43:49;;;;;;;2.70;1.50;;;;;;;8.56;100.00;101074.94;5248467;28;20032;-68
2023/01/07 07:46:20;;;;;;;5.07;1.20;;;;;;;8.56;100.00;101069.63;5245902;28;20455;-68
2023/01/07 07:48:51;;;;;;;3.97;1.25;;;;;;;8.56;100.00;101070.47;5247580;28;20036;-68
2023/01/07 07:51:23;;;;;;;3.42;1.20;;;;;;;8.62;100.00;101062.09;5247739;28;20032;-68
2023/01/07 07:53:54;;;;;;;3.65;1.40;;;;;;;8.57;100.00;101061.56;5249242;28;20032;-68
2023/01/07 07:56:25;;;;;;;2.78;1.35;;;;;;;8.62;100.00;101061.25;5251900;28;20033;-71
2023/01/07 07:58:59;;;;;;;3.63;1.50;;;;;;;8.56;100.00;101067.81;5253510;28;20032;-69
2023/01/07 08:01:31;;;;;;;3.85;1.17;;;;;;;8.53;100.00;101056.53;5245894;28;20032;-70
2023/01/07 08:04:05;;;;;;;3.30;1.60;;;;;;;8.54;100.00;101059.09;5249389;28;20386;-71
2023/01/07 08:06:36;;;;;;;3.35;1.35;;;;;;;8.54;100.00;101055.59;5252757;28;20064;-70
2023/01/07 08:09:08;;;;;;;2.67;1.35;;;;;;;8.60;100.00;101052.53;5247230;28;20180;-72
2023/01/07 08:11:39;;;;;;;4.22;1.40;;;;;;;8.53;100.00;101054.72;5255313;28;20033;-69
2023/01/07 08:14:10;;;;;;;2.22;1.20;;;;;;;8.51;100.00;101040.66;5247407;28;20553;-69
2023/01/07 08:16:41;;;;;;;4.30;1.30;;;;;;;8.54;100.00;101045.78;5246703;28;20079;-69
2023/01/07 08:19:14;;;;;;;2.97;1.38;;;;;;;8.55;100.00;101051.94;5240073;28;20052;-69
2023/01/07 08:21:47;;;;;;;2.92;1.17;;;;;;;8.52;100.00;101045.03;5246948;28;20017;-69
2023/01/07 08:24:19;;;;;;;4.07;1.45;;;;;;;8.56;100.00;101046.53;5252876;28;20028;-69
2023/01/07 08:26:54;;;;;;;3.20;1.48;;;;;;;8.58;100.00;101039.31;5252005;28;20724;-70
2023/01/07 08:29:25;;;;;;;2.55;1.23;;;;;;;8.61;100.00;101036.47;5248631;28;20040;-71
2023/01/07 08:31:56;;;;;;;2.83;1.10;;;;;;;8.66;100.00;101036.16;5239645;28;20058;-70
2023/01/07 08:34:28;;;;;;;2.50;1.30;;;;;;;8.67;100.00;101035.22;5241890;28;20568;-71
2023/01/07 08:36:59;;;;;;;3.58;1.20;;;;;;;8.69;100.00;101040.44;5243332;28;20394;-70
2023/01/07 08:39:30;;;;;;;2.13;1.10;;;;;;;8.77;100.00;101036.31;5252809;28;20021;-70
2023/01/07 08:42:02;;;;;;;4.43;1.65;;;;;;;8.73;100.00;101025.97;5244778;28;20079;-70
2023/01/07 08:44:33;;;;;;;4.05;1.40;;;;;;;8.76;100.00;101023.97;5246946;28;20029;-71
2023/01/07 08:47:04;;;;;;;4.95;1.40;;;;;;;8.78;100.00;101022.06;5252219;28;20492;-70
2023/01/07 08:49:36;;;;;;;3.08;1.00;;;;;;;8.81;100.00;101024.50;5251588;28;20398;-70
2023/01/07 08:52:07;;;;;;;3.70;1.20;;;;;;;8.82;100.00;101026.22;5246410;28;20025;-70
2023/01/07 08:54:39;;;;;;;2.28;0.95;;;;;;;8.85;100.00;101019.00;5248427;28;20471;-70
2023/01/07 08:57:10;;;;;;;3.30;1.23;;;;;;;8.86;100.00;101018.03;5253080;28;20036;-70
2023/01/07 08:59:42;;;;;;;2.63;1.10;;;;;;;8.91;100.00;101018.56;5255816;28;20499;-70
2023/01/07 09:02:16;;;;;;;3.25;0.98;;;;;;;8.93;100.00;101025.50;5251720;28;20505;-70
2023/01/07 09:04:47;;;;;;;2.85;1.00;;;;;;;8.92;100.00;101031.78;5251775;28;20565;-70
2023/01/07 09:07:18;;;;;;;2.80;1.05;;;;;;;8.98;100.00;101018.06;5250912;28;20044;-70
2023/01/07 09:09:49;;;;;;;2.97;1.10;;;;;;;8.97;100.00;101000.38;5263817;28;20032;-70
2023/01/07 09:12:21;;;;;;;2.95;1.20;;;;;;;8.98;100.00;101011.91;5254125;28;20028;-70
2023/01/07 09:14:52;;;;;;;34.83;17.75;;;;;;;8.99;100.00;101002.94;5257654;28;20033;-71
2023/01/07 09:17:23;;;;;;;26.63;15.10;;;;;;;9.04;100.00;101006.16;5249063;28;20060;-70
2023/01/07 09:19:55;;;;;;;6.82;4.10;;;;;;;9.08;100.00;100999.66;5255944;28;20102;-70
2023/01/07 09:22:26;;;;;;;2.63;1.40;;;;;;;9.05;100.00;100993.69;5253344;28;20421;-70
2023/01/07 09:24:57;;;;;;;2.75;1.25;;;;;;;9.06;100.00;101003.41;5258354;28;20501;-70
2023/01/07 09:27:29;;;;;;;4.28;1.10;;;;;;;9.06;100.00;100993.59;5258708;28;20514;-70
2023/01/07 09:30:00;;;;;;;2.97;1.33;;;;;;;9.13;100.00;100994.03;5253353;28;20476;-70
2023/01/07 09:32:31;;;;;;;3.25;1.17;;;;;;;9.16;100.00;100989.34;5256941;28;20107;-70
2023/01/07 09:35:05;;;;;;;2.80;1.35;;;;;;;9.18;100.00;100987.41;5257570;28;20471;-70
2023/01/07 09:37:36;;;;;;;2.65;1.40;;;;;;;9.19;100.00;100981.16;5257213;28;20523;-70
2023/01/07 09:40:17;;;;;;;4.40;1.88;;;;;;;9.25;100.00;100981.69;5257770;28;20025;-70
2023/01/07 09:43:09;;;;;;;4.70;1.90;;;;;;;9.29;100.00;100967.22;5256640;28;20021;-70
2023/01/07 09:46:02;;;;;;;2.67;1.30;;;;;;;9.33;100.00;100968.69;5253641;28;20045;-71
2023/01/07 09:48:43;;;;;;;2.15;0.93;;;;;;;9.32;100.00;100959.00;5249575;28;20532;-70
2023/01/07 09:51:22;;;;;;;2.28;1.10;;;;;;;9.38;100.00;100967.41;5249845;28;20029;-70
2023/01/07 09:53:58;;;;;;;2.05;1.00;;;;;;;9.36;100.00;100953.38;5255453;28;20033;-70
2023/01/07 09:56:33;;;;;;;2.33;0.90;;;;;;;9.47;100.00;100957.06;5257439;28;20063;-70
2023/01/07 09:59:09;;;;;;;2.40;0.90;;;;;;;9.42;100.00;100952.09;5257659;28;20471;-71
2023/01/07 10:01:52;;;;;;;3.08;0.73;;;;;;;9.43;100.00;100940.47;5247668;28;20079;-70
2023/01/07 10:04:52;;;;;;;2.20;0.90;;;;;;;9.43;100.00;100940.47;5246775;28;20459;-70
2023/01/07 10:07:37;;;;;;;3.53;1.10;;;;;;;9.45;100.00;100935.03;5254575;28;20056;-71
2023/01/07 10:10:21;;;;;;;2.90;1.08;;;;;;;9.45;100.00;100927.88;5254712;28;20432;-70
2023/01/07 10:13:17;;;;;;;1.77;0.80;;;;;;;9.46;100.00;100926.09;5252672;28;20067;-71
2023/01/07 10:16:02;;;;;;;2.25;1.25;;;;;;;9.49;100.00;100917.88;5251067;28;20029;-70
2023/01/07 10:18:45;;;;;;;;;;;;;;;9.50;100.00;100901.78;5249417;28;20390;-71
2023/01/07 10:21:26;;;;;;;2.30;1.17;;;;;;;9.49;100.00;100905.44;5255145;28;20326;-70
2023/01/07 10:24:17;;;;;;;3.47;1.10;;;;;;;9.48;100.00;100898.38;5255218;28;20028;-70
2023/01/07 10:26:52;;;;;;;2.28;0.90;;;;;;;9.55;100.00;100894.34;5251541;28;20031;-71
2023/01/07 10:29:38;;;;;;;3.67;1.10;;;;;;;9.47;100.00;100885.16;5252900;28;20052;-71
2023/01/07 10:32:15;;;;;;;3.63;1.23;;;;;;;9.55;100.00;100883.69;5246936;28;20095;-70
2023/01/07 10:34:49;;;;;;;3.10;1.08;;;;;;;9.49;100.00;100875.25;5252696;28;20492;-70
2023/01/07 10:37:31;;;;;;;2.13;0.95;;;;;;;9.56;100.00;100869.38;5253565;28;20028;-70
2023/01/07 10:40:23;;;;;;;1.85;1.00;;;;;;;9.60;100.00;100868.19;5256033;28;20658;-70
2023/01/07 10:43:21;;;;;;;2.22;0.90;;;;;;;9.61;100.00;100863.75;5252119;28;20044;-70
2023/01/07 10:45:58;;;;;;;1.90;0.80;;;;;;;9.58;100.00;100861.28;5253712;28;20040;-70
2023/01/07 10:49:04;;;;;;;2.42;0.90;;;;;;;9.64;100.00;100849.34;5253898;28;20040;-70
2023/01/07 10:52:02;;;;;;;3.33;1.00;;;;;;;9.67;100.00;100847.31;5257179;28;20029;-70
2023/01/07 10:55:04;;;;;;;3.22;1.10;;;;;;;9.66;100.00;100836.75;5252022;28;20064;-70
2023/01/07 10:57:37;;;;;;;2.45;0.98;;;;;;;9.70;100.00;100835.56;5252676;28;20493;-70
2023/01/07 11:00:14;;;;;;;2.45;0.70;;;;;;;9.72;100.00;100831.84;5250652;28;20052;-70
2023/01/07 11:02:51;;;;;;;2.10;0.90;;;;;;;9.71;100.00;100826.63;5254079;28;20498;-70
2023/01/07 11:05:27;;;;;;;3.35;0.90;;;;;;;9.71;100.00;100818.63;5256473;28;20102;-70
2023/01/07 11:08:00;;;;;;;2.55;0.80;;;;;;;9.72;100.00;100828.31;5254606;28;20116;-70
2023/01/07 11:10:34;;;;;;;2.75;0.90;;;;;;;9.74;100.00;100826.38;5254719;28;20075;-70
2023/01/07 11:13:27;;;;;;;1.60;0.68;;;;;;;9.80;100.00;100820.63;5243601;28;21074;-70
2023/01/07 11:16:08;;;;;;;3.47;0.80;;;;;;;9.82;100.00;100818.69;5250749;28;20025;-70
2023/01/07 11:19:02;;;;;;;2.58;0.90;;;;;;;9.88;100.00;100820.91;5252978;28;20052;-70
2023/01/07 11:21:38;;;;;;;3.85;0.88;;;;;;;9.88;100.00;100810.25;5247785;28;20029;-70
2023/01/07 11:24:18;;;;;;;1.92;0.80;;;;;;;9.89;100.00;100801.25;5245984;28;20029;-70
2023/01/07 11:26:50;;;;;;;3.83;0.90;;;;;;;9.85;100.00;100794.47;5244573;28;20052;-70
2023/01/07 11:29:40;;;;;;;1.90;0.73;;;;;;;9.91;100.00;100782.50;5246581;28;20029;-70
2023/01/07 11:32:29;;;;;;;2.13;0.80;;;;;;;9.89;100.00;100765.78;5242636;28;20395;-70
2023/01/07 11:35:05;;;;;;;2.88;1.02;;;;;;;9.86;100.00;100761.53;5251506;28;20013;-70
2023/01/07 11:37:39;;;;;;;2.83;0.90;;;;;;;9.87;100.00;100763.22;5251316;28;20025;-70
2023/01/07 11:40:13;;;;;;;2.30;0.93;;;;;;;9.84;100.00;100766.13;5247683;28;20104;-70
2023/01/07 11:42:54;;;;;;;2.50;1.00;;;;;;;9.87;100.00;100751.72;5251554;28;20142;-70
2023/01/07 11:45:36;;;;;;;4.30;2.47;;;;;;;9.81;100.00;100750.38;5253008;28;20037;-70
2023/01/07 11:48:27;;;;;;;6.57;4.20;;;;;;;9.85;100.00;100730.50;5247081;28;20037;-70
2023/01/07 11:51:04;;;;;;;7.93;4.82;;;;;;;9.84;100.00;100742.16;5252796;28;20032;-70
2023/01/07 11:53:52;;;;;;;1.92;0.90;;;;;;;9.86;100.00;100726.06;5247512;28;20116;-71
2023/01/07 11:56:27;;;;;;;2.97;1.00;;;;;;;9.87;100.00;100725.06;5245624;28;20474;-70
2023/01/07 11:59:12;;;;;;;2.40;1.23;;;;;;;9.82;100.00;100715.63;5248085;28;20036;-70
2023/01/07 12:01:55;;;;;;;2.35;1.08;;;;;;;9.85;100.00;100709.19;5256158;28;20545;-70
2023/01/07 12:04:31;;;;;;;3.30;1.00;;;;;;;9.84;100.00;100702.19;5249756;28;20029;-70